Time;durP1;ratioP1;P1;durP2;ratioP2;P2;SDS_P1;SDS_P2;PMS_P1;PMS_P2;Temp;Humidity;BMP_temperature;BMP_pressure;BME280_temperature;BME280_humidity;BME280_pressure;Samples;Min_cycle;Max_cycle;Signal;HPM_P1;HPM_P2
2023/04/09 00:08:37;;;;;;;8.15;4.35;;;;;;;5.64;100.00;100602.16;12184208;19;20034;-78
2023/04/09 00:12:39;;;;;;;11.98;5.20;;;;;;;5.62;100.00;100592.47;12206602;19;20035;-79
2023/04/09 00:16:40;;;;;;;11.90;5.53;;;;;;;5.55;100.00;100586.09;12185060;19;20449;-78
2023/04/09 00:20:43;;;;;;;10.07;4.72;;;;;;;5.44;100.00;100576.53;12206969;19;20007;-78
2023/04/09 00:24:45;;;;;;;15.02;5.25;;;;;;;5.35;100.00;100578.56;12203182;19;20042;-79
2023/04/09 00:28:46;;;;;;;9.82;4.95;;;;;;;5.27;100.00;100577.91;12181937;19;20030;-80
2023/04/09 00:32:49;;;;;;;11.82;5.38;;;;;;;5.16;100.00;100582.81;12201442;19;20006;-78
2023/04/09 00:36:51;;;;;;;9.63;5.38;;;;;;;5.06;100.00;100575.97;12203653;19;20017;-79
2023/04/09 00:40:52;;;;;;;9.07;4.53;;;;;;;4.94;100.00;100576.53;12183525;19;20369;-78
2023/04/09 00:44:54;;;;;;;9.07;4.78;;;;;;;4.79;100.00;100576.59;12202792;19;20014;-78
2023/04/09 00:48:56;;;;;;;9.23;4.28;;;;;;;4.67;100.00;100571.78;12192891;19;20003;-78
2023/04/09 00:52:58;;;;;;;8.50;4.88;;;;;;;4.58;100.00;100579.28;12178475;19;20002;-78
2023/04/09 00:57:00;;;;;;;9.02;4.35;;;;;;;4.48;100.00;100582.28;12197511;19;20483;-79
2023/04/09 01:01:02;;;;;;;10.68;4.68;;;;;;;4.39;100.00;100582.59;12201298;19;20011;-78
2023/04/09 01:05:04;;;;;;;8.93;4.43;;;;;;;4.31;100.00;100575.34;12167397;19;20025;-78
2023/04/09 01:09:27;;;;;;;11.63;5.93;;;;;;;4.27;100.00;100584.97;12197536;19;20545;-79
2023/04/09 01:14:05;;;;;;;13.98;6.35;;;;;;;4.24;100.00;100575.28;12175073;19;20010;-78
2023/04/09 01:18:14;;;;;;;16.52;7.20;;;;;;;4.14;100.00;100580.19;12191864;19;20014;-79
2023/04/09 01:22:36;;;;;;;14.68;6.68;;;;;;;4.06;100.00;100581.13;12200353;19;20452;-78
2023/04/09 01:26:51;;;;;;;18.23;6.93;;;;;;;3.99;100.00;100574.75;12175085;19;20113;-78
2023/04/09 01:31:01;;;;;;;14.88;6.63;;;;;;;3.95;100.00;100576.13;12198230;19;20011;-78
2023/04/09 01:35:05;;;;;;;15.32;6.40;;;;;;;3.89;100.00;100572.28;12172468;19;20078;-78
2023/04/09 01:39:08;;;;;;;15.15;6.03;;;;;;;3.86;100.00;100569.09;12196289;19;20460;-78
2023/04/09 01:43:12;;;;;;;13.35;6.03;;;;;;;3.81;100.00;100568.81;12193520;19;20069;-78
2023/04/09 01:47:14;;;;;;;15.05;6.55;;;;;;;3.78;100.00;100569.19;12174347;19;20034;-79
2023/04/09 01:51:17;;;;;;;13.50;5.33;;;;;;;3.76;100.00;100571.25;12197973;19;20026;-78
2023/04/09 01:55:18;;;;;;;12.75;6.15;;;;;;;3.76;100.00;100571.25;12194969;19;20003;-78
2023/04/09 01:59:20;;;;;;;14.02;6.78;;;;;;;3.77;100.00;100573.78;12165354;19;20038;-79
2023/04/09 02:03:38;;;;;;;14.93;6.68;;;;;;;3.78;100.00;100572.75;12191595;19;20007;-78
2023/04/09 02:07:44;;;;;;;14.05;7.05;;;;;;;3.78;100.00;100580.09;12169703;19;20102;-77
2023/04/09 02:11:48;;;;;;;16.48;7.60;;;;;;;3.77;100.00;100576.50;12193415;19;20011;-78
2023/04/09 02:15:51;;;;;;;13.45;5.90;;;;;;;3.77;100.00;100581.13;12200733;19;20014;-78
2023/04/09 02:19:53;;;;;;;16.75;7.05;;;;;;;3.77;100.00;100586.56;12164217;19;20022;-79
2023/04/09 02:23:55;;;;;;;16.35;6.22;;;;;;;3.78;100.00;100582.81;12204590;19;20002;-77
2023/04/09 02:27:57;;;;;;;14.85;6.45;;;;;;;3.78;100.00;100574.66;12205282;19;20010;-79
2023/04/09 02:31:59;;;;;;;17.30;6.90;;;;;;;3.78;100.00;100571.91;12210226;19;20036;-78
2023/04/09 02:36:01;;;;;;;20.98;8.52;;;;;;;3.77;100.00;100571.06;12181065;19;20010;-79
2023/04/09 02:40:03;;;;;;;12.05;5.50;;;;;;;3.76;100.00;100572.09;12205776;19;20003;-78
2023/04/09 02:44:05;;;;;;;22.15;7.07;;;;;;;3.76;100.00;100573.97;12203786;19;20011;-79
2023/04/09 02:48:07;;;;;;;15.77;6.77;;;;;;;3.76;100.00;100568.53;12182645;19;20023;-79
2023/04/09 02:52:10;;;;;;;20.77;8.55;;;;;;;3.75;100.00;100572.25;12202695;19;20021;-78
2023/04/09 02:56:12;;;;;;;16.90;7.85;;;;;;;3.76;100.00;100565.81;12201553;19;20494;-78
2023/04/09 03:00:13;;;;;;;17.23;7.57;;;;;;;3.76;100.00;100573.97;12181972;19;20013;-79
2023/04/09 03:04:15;;;;;;;16.75;8.38;;;;;;;3.77;100.00;100562.03;12199468;19;20089;-78
2023/04/09 03:08:17;;;;;;;18.75;8.57;;;;;;;3.75;100.00;100564.09;12176513;19;20447;-78
2023/04/09 03:12:19;;;;;;;15.38;7.75;;;;;;;3.70;100.00;100559.22;12198896;19;20006;-77
2023/04/09 03:16:23;;;;;;;21.50;9.38;;;;;;;3.66;100.00;100555.19;12200129;19;20011;-78
2023/04/09 03:20:25;;;;;;;17.90;8.38;;;;;;;3.60;100.00;100562.22;12177225;19;20010;-78
2023/04/09 03:24:27;;;;;;;20.83;8.80;;;;;;;3.55;100.00;100558.34;12198714;19;20006;-78
2023/04/09 03:28:34;;;;;;;20.08;8.73;;;;;;;3.47;100.00;100556.53;12198901;19;19998;-78
2023/04/09 03:32:37;;;;;;;17.90;8.00;;;;;;;3.38;100.00;100553.06;12176203;19;20388;-79
2023/04/09 03:36:39;;;;;;;17.40;8.32;;;;;;;3.34;100.00;100553.63;12197383;19;20024;-78
2023/04/09 03:40:49;;;;;;;15.35;7.38;;;;;;;3.26;100.00;100548.25;12196284;19;20070;-77
2023/04/09 03:44:53;;;;;;;18.55;7.50;;;;;;;3.18;100.00;100546.41;12175735;19;20006;-79
2023/04/09 03:49:06;;;;;;;16.70;7.82;;;;;;;3.12;100.00;100552.59;12201385;19;20021;-79
2023/04/09 03:53:15;;;;;;;18.13;7.72;;;;;;;3.07;100.00;100545.00;12216652;19;20025;-80
2023/04/09 03:57:19;;;;;;;18.85;8.02;;;;;;;3.03;100.00;100545.53;12216736;19;20063;-79
2023/04/09 04:01:24;;;;;;;20.10;8.48;;;;;;;2.98;100.00;100548.81;12207528;19;20010;-79
2023/04/09 04:05:30;;;;;;;16.55;8.00;;;;;;;2.94;100.00;100550.19;12181862;19;20598;-78
2023/04/09 04:09:36;;;;;;;22.90;9.65;;;;;;;2.91;100.00;100545.13;12199904;19;20082;-80
2023/04/09 04:13:43;;;;;;;20.73;8.57;;;;;;;2.86;100.00;100547.56;12197976;19;20006;-79
2023/04/09 04:17:45;;;;;;;17.83;7.70;;;;;;;2.80;100.00;100548.28;12178742;19;20006;-78
2023/04/09 04:22:02;;;;;;;20.80;7.43;;;;;;;2.72;100.00;100552.75;12215285;19;20441;-80
2023/04/09 04:26:09;;;;;;;18.60;8.65;;;;;;;2.69;100.00;100555.81;12249182;19;20006;-80
2023/04/09 04:30:11;;;;;;;18.65;8.50;;;;;;;2.68;100.00;100561.47;12245336;19;20001;-80
2023/04/09 04:34:27;;;;;;;16.73;7.70;;;;;;;2.65;100.00;100559.94;12215521;19;20030;-80
2023/04/09 04:38:40;;;;;;;21.65;8.65;;;;;;;2.68;100.00;100562.31;12180218;19;20029;-80
2023/04/09 04:42:47;;;;;;;28.05;11.32;;;;;;;2.74;100.00;100561.59;12200200;19;20054;-79
2023/04/09 04:46:50;;;;;;;27.88;11.02;;;;;;;2.88;100.00;100561.81;12199469;19;20050;-79
2023/04/09 04:50:59;;;;;;;23.52;9.57;;;;;;;2.96;100.00;100559.03;12177993;19;20003;-79
2023/04/09 04:55:09;;;;;;;27.38;10.65;;;;;;;3.01;100.00;100564.78;12196934;19;20016;-79
2023/04/09 04:59:11;;;;;;;21.77;10.30;;;;;;;3.04;100.00;100566.31;12199092;19;20089;-79
2023/04/09 05:03:33;;;;;;;21.48;9.10;;;;;;;3.04;100.00;100566.31;12176018;19;20003;-79
2023/04/09 05:07:57;;;;;;;18.45;8.25;;;;;;;3.03;100.00;100559.16;12194199;19;20010;-79
2023/04/09 05:12:00;;;;;;;22.30;10.60;;;;;;;3.06;100.00;100565.06;12172063;19;20026;-79
2023/04/09 05:16:02;;;;;;;25.35;11.23;;;;;;;3.13;100.00;100563.34;12193544;19;20429;-79
2023/04/09 05:20:07;;;;;;;24.73;10.38;;;;;;;3.25;100.00;100571.91;12196353;19;20003;-79
2023/04/09 05:24:25;;;;;;;17.67;9.18;;;;;;;3.37;100.00;100577.78;12173454;19;20519;-78
2023/04/09 05:28:28;;;;;;;21.27;9.02;;;;;;;3.54;100.00;100579.31;12193981;19;20031;-79
2023/04/09 05:32:40;;;;;;;18.23;9.13;;;;;;;3.74;100.00;100576.03;12170169;19;20014;-78
2023/04/09 05:36:42;;;;;;;20.85;9.18;;;;;;;3.93;100.00;100583.69;12195842;19;20149;-79
2023/04/09 05:40:45;;;;;;;;;;;;;;;4.08;100.00;100587.25;12197394;19;20018;-78
2023/04/09 05:44:47;;;;;;;18.25;9.82;;;;;;;4.27;100.00;100580.34;12174336;19;19918;-79
2023/04/09 05:48:53;;;;;;;19.30;8.52;;;;;;;4.46;100.00;100584.38;12204971;19;20055;-79
2023/04/09 05:52:57;;;;;;;25.35;9.85;;;;;;;4.65;100.00;100577.47;12207230;19;20006;-79
2023/04/09 05:57:05;;;;;;;20.33;10.18;;;;;;;4.86;100.00;100584.84;12186421;19;20049;-79
2023/04/09 06:01:10;;;;;;;21.90;9.93;;;;;;;5.06;100.00;100581.44;12205533;19;20007;-79
2023/04/09 06:05:12;;;;;;;24.10;10.88;;;;;;;5.34;100.00;100582.34;12205854;19;20648;-78
2023/04/09 06:09:14;;;;;;;22.07;9.57;;;;;;;5.58;100.00;100572.88;12179588;19;20384;-81
2023/04/09 06:13:16;;;;;;;25.02;11.73;;;;;;;5.85;100.00;100573.91;12199718;19;20095;-78
2023/04/09 06:17:18;;;;;;;23.03;11.17;;;;;;;6.13;100.00;100584.88;12177413;19;20010;-78
2023/04/09 06:21:20;;;;;;;28.03;12.17;;;;;;;6.36;100.00;100584.53;12202832;19;20010;-78
2023/04/09 06:25:21;;;;;;;24.58;11.23;;;;;;;6.56;100.00;100592.00;12201230;19;20030;-78
2023/04/09 06:29:23;;;;;;;28.75;12.15;;;;;;;6.78;100.00;100585.38;12179150;19;20377;-78
2023/04/09 06:33:25;;;;;;;23.88;11.32;;;;;;;7.04;100.00;100580.97;12199304;19;20041;-79
2023/04/09 06:37:27;;;;;;;26.48;12.38;;;;;;;7.33;100.00;100587.97;12201492;19;20460;-79
2023/04/09 06:41:29;;;;;;;29.02;14.00;;;;;;;7.58;100.00;100590.09;12183682;19;20002;-79
2023/04/09 06:45:32;;;;;;;25.95;12.13;;;;;;;7.78;100.00;100596.41;12201698;19;20003;-79
2023/04/09 06:49:34;;;;;;;27.20;14.05;;;;;;;7.98;100.00;100601.91;12199029;19;20042;-79
2023/04/09 06:53:39;;;;;;;26.73;12.97;;;;;;;8.16;100.00;100599.31;12183514;19;20004;-78
2023/04/09 06:57:41;;;;;;;25.40;13.38;;;;;;;8.35;100.00;100600.31;12202133;19;20345;-79
2023/04/09 07:01:43;;;;;;;24.95;12.60;;;;;;;8.59;100.00;100600.69;12202948;19;20034;-78
2023/04/09 07:05:46;;;;;;;23.40;11.68;;;;;;;8.82;100.00;100601.00;12175883;19;20007;-79
2023/04/09 07:09:47;;;;;;;17.80;9.03;;;;;;;9.01;100.00;100604.72;12199326;19;20006;-78
2023/04/09 07:13:49;;;;;;;22.98;11.68;;;;;;;9.28;100.00;100601.78;12193420;19;20359;-79
2023/04/09 07:17:51;;;;;;;27.10;13.27;;;;;;;9.39;100.00;100597.50;12162271;19;20007;-79
2023/04/09 07:21:54;;;;;;;25.25;13.75;;;;;;;9.48;98.31;100598.91;12191061;19;20006;-80
2023/04/09 07:25:56;;;;;;;25.70;13.07;;;;;;;9.63;99.79;100598.56;12199260;19;20010;-81
2023/04/09 07:29:58;;;;;;;23.52;12.30;;;;;;;9.84;100.00;100603.66;12179750;19;20030;-79
2023/04/09 07:34:00;;;;;;;26.48;12.88;;;;;;;10.12;99.45;100600.44;12198243;19;20007;-79
2023/04/09 07:38:02;;;;;;;22.92;12.05;;;;;;;10.38;95.92;100604.00;12198351;19;20030;-79
2023/04/09 07:42:04;;;;;;;23.87;12.30;;;;;;;10.57;94.17;100615.88;12176568;19;20083;-80
2023/04/09 07:46:06;;;;;;;;;;;;;;;10.68;89.46;100606.84;12201574;19;20029;-79
2023/04/09 07:50:09;;;;;;;22.35;11.82;;;;;;;10.76;89.41;100612.03;12207145;19;19925;-81
2023/04/09 07:54:10;;;;;;;25.40;13.13;;;;;;;10.82;90.04;100616.59;12177597;19;20010;-80
2023/04/09 07:58:12;;;;;;;23.23;12.75;;;;;;;10.94;88.47;100616.66;12200041;19;19998;-81
2023/04/09 08:02:14;;;;;;;21.27;12.02;;;;;;;11.02;88.02;100618.28;12213133;19;20013;-81
2023/04/09 08:06:16;;;;;;;24.33;12.93;;;;;;;11.12;85.33;100624.06;12179340;19;20028;-79
2023/04/09 08:10:18;;;;;;;40.60;23.08;;;;;;;11.26;87.19;100619.19;12174707;19;20391;-79
2023/04/09 08:14:20;;;;;;;23.30;12.63;;;;;;;11.31;84.54;100624.88;12178646;19;20361;-79
2023/04/09 08:18:21;;;;;;;19.48;10.27;;;;;;;11.52;83.95;100637.28;12206020;19;20003;-79
2023/04/09 08:22:23;;;;;;;21.48;13.20;;;;;;;11.60;83.19;100636.94;12209347;19;20014;-79
2023/04/09 08:26:26;;;;;;;23.35;12.88;;;;;;;11.67;82.72;100637.69;12171563;19;20358;-79
2023/04/09 08:30:27;;;;;;;21.88;11.68;;;;;;;11.62;79.24;100645.81;12208780;19;20071;-80
2023/04/09 08:34:29;;;;;;;19.67;11.47;;;;;;;11.70;79.89;100637.19;12207375;19;20015;-79
2023/04/09 08:38:31;;;;;;;19.90;11.40;;;;;;;11.84;78.87;100643.38;12196737;19;20370;-78
2023/04/09 08:42:34;;;;;;;24.23;12.75;;;;;;;12.13;79.49;100647.13;12224627;19;20006;-80
2023/04/09 08:46:36;;;;;;;25.00;12.27;;;;;;;12.70;78.24;100649.22;12205224;19;20017;-79
2023/04/09 08:50:38;;;;;;;24.55;14.02;;;;;;;13.13;73.71;100651.53;12177886;19;20010;-79
2023/04/09 08:54:39;;;;;;;19.00;11.53;;;;;;;13.46;73.78;100644.44;12206592;19;20392;-79
2023/04/09 08:58:45;;;;;;;20.20;11.80;;;;;;;13.74;71.44;100648.25;12222540;19;20010;-80
2023/04/09 09:03:10;;;;;;;22.25;12.07;;;;;;;13.70;70.58;100642.38;12227545;19;20039;-80
2023/04/09 09:07:12;;;;;;;19.38;10.15;;;;;;;13.54;69.30;100649.56;12250131;19;20006;-80
2023/04/09 09:11:25;;;;;;;19.58;12.10;;;;;;;13.27;69.45;100649.34;12253330;19;19999;-81
2023/04/09 09:15:28;;;;;;;22.13;11.65;;;;;;;12.99;72.42;100650.13;12231492;19;20006;-80
2023/04/09 09:19:32;;;;;;;19.50;11.43;;;;;;;13.05;72.61;100649.13;12252027;19;20011;-80
2023/04/09 09:23:35;;;;;;;21.13;11.88;;;;;;;13.16;71.47;100651.03;12231540;19;21249;-80
2023/04/09 09:27:39;;;;;;;20.67;11.85;;;;;;;13.30;70.90;100651.63;12250066;19;20010;-80
2023/04/09 09:31:50;;;;;;;17.13;9.95;;;;;;;13.48;67.48;100641.44;12228578;19;20014;-81
2023/04/09 09:35:53;;;;;;;13.70;8.38;;;;;;;13.62;66.10;100640.88;12188049;19;20011;-80
2023/04/09 09:39:55;;;;;;;15.63;8.90;;;;;;;13.72;61.41;100642.13;12208157;19;20006;-80
2023/04/09 09:43:57;;;;;;;13.85;8.00;;;;;;;13.98;62.23;100638.72;12206534;19;20388;-80
2023/04/09 09:47:59;;;;;;;12.02;7.63;;;;;;;14.18;61.50;100640.94;12185988;19;20026;-81
2023/04/09 09:52:03;;;;;;;12.67;8.30;;;;;;;14.39;59.15;100632.94;12207997;19;20006;-80
2023/04/09 09:56:10;;;;;;;12.30;7.55;;;;;;;14.63;59.22;100636.34;12207536;19;20030;-80
2023/04/09 10:00:13;;;;;;;15.07;8.43;;;;;;;14.86;59.11;100629.72;12193620;19;20018;-79
2023/04/09 10:04:18;;;;;;;13.63;8.52;;;;;;;14.78;58.63;100628.22;12245988;19;20002;-80
2023/04/09 10:08:22;;;;;;;13.98;8.27;;;;;;;14.98;58.09;100622.94;12241495;19;19995;-81
2023/04/09 10:12:26;;;;;;;12.23;6.93;;;;;;;15.16;56.44;100612.59;12223841;19;20821;-80
2023/04/09 10:16:27;;;;;;;11.95;7.72;;;;;;;15.18;54.31;100618.72;12201096;19;20094;-79
2023/04/09 10:20:40;;;;;;;11.87;7.30;;;;;;;15.41;55.04;100620.38;12169582;19;20540;-79
2023/04/09 10:24:42;;;;;;;;;;;;;;;15.35;52.97;100616.69;12192895;19;20009;-79
2023/04/09 10:28:45;;;;;;;10.80;6.80;;;;;;;15.56;54.11;100614.13;12197094;19;20013;-80
2023/04/09 10:32:46;;;;;;;13.43;7.97;;;;;;;15.61;52.80;100611.38;12174876;19;20038;-78
2023/04/09 10:36:53;;;;;;;12.38;7.43;;;;;;;15.68;53.28;100606.47;12206297;19;20011;-79
2023/04/09 10:40:55;;;;;;;12.07;8.10;;;;;;;15.70;52.06;100602.34;12209229;19;20066;-79
2023/04/09 10:45:06;;;;;;;12.23;7.32;;;;;;;15.75;50.01;100601.53;12187810;19;20019;-79
2023/04/09 10:49:15;;;;;;;13.23;8.18;;;;;;;15.95;48.85;100598.91;12209757;19;20007;-78
2023/04/09 10:53:24;;;;;;;14.88;9.00;;;;;;;16.05;50.17;100591.75;12189359;19;20045;-78
2023/04/09 10:57:26;;;;;;;12.23;8.30;;;;;;;16.23;50.17;100591.31;12206434;19;20113;-79
2023/04/09 11:01:29;;;;;;;12.07;7.65;;;;;;;16.52;49.16;100590.94;12205954;19;20007;-79
2023/04/09 11:05:33;;;;;;;12.02;7.53;;;;;;;16.84;46.31;100591.66;12186970;19;20024;-79
2023/04/09 11:09:35;;;;;;;10.00;5.97;;;;;;;17.16;45.82;100592.59;12206140;19;20018;-79
2023/04/09 11:13:37;;;;;;;9.37;5.67;;;;;;;17.44;43.51;100596.84;12204940;19;20014;-79
2023/04/09 11:17:39;;;;;;;7.47;5.43;;;;;;;17.44;43.09;100586.53;12180492;19;20010;-79
2023/04/09 11:21:45;;;;;;;9.10;6.53;;;;;;;17.42;42.67;100587.91;12203284;19;20157;-79
2023/04/09 11:25:49;;;;;;;7.53;5.15;;;;;;;17.54;44.06;100580.13;12203453;19;20130;-80
2023/04/09 11:29:55;;;;;;;8.65;5.63;;;;;;;17.46;42.78;100573.16;12179312;19;20381;-79
2023/04/09 11:33:56;;;;;;;8.50;5.65;;;;;;;17.36;41.54;100575.09;12202428;19;20006;-80
2023/04/09 11:37:58;;;;;;;9.43;6.07;;;;;;;17.09;41.49;100570.56;12201322;19;20010;-79
2023/04/09 11:42:00;;;;;;;10.43;5.70;;;;;;;17.06;41.55;100563.59;12181850;19;20010;-81
2023/04/09 11:46:03;;;;;;;8.90;5.82;;;;;;;17.16;40.49;100579.50;12203699;19;20029;-80
2023/04/09 11:50:06;;;;;;;8.15;5.28;;;;;;;17.36;40.71;100566.72;12201205;19;20030;-79
2023/04/09 11:54:10;;;;;;;8.50;5.53;;;;;;;17.15;40.70;100569.47;12179090;19;20011;-80
2023/04/09 11:58:13;;;;;;;9.35;6.30;;;;;;;16.79;41.52;100563.81;12203116;19;20006;-79
2023/04/09 12:02:17;;;;;;;7.43;5.20;;;;;;;16.81;41.62;100566.34;12203471;19;20010;-79
2023/04/09 12:06:21;;;;;;;7.15;4.80;;;;;;;16.94;40.32;100570.53;12199361;19;20062;-78
2023/04/09 12:10:28;;;;;;;7.95;4.88;;;;;;;17.00;41.01;100575.84;12195884;19;20010;-79
2023/04/09 12:14:30;;;;;;;8.55;5.45;;;;;;;16.96;41.48;100569.16;12175460;19;21280;-78
2023/04/09 12:18:35;;;;;;;8.07;5.00;;;;;;;17.03;41.31;100577.25;12197648;19;20006;-78
2023/04/09 12:22:39;;;;;;;8.27;4.95;;;;;;;17.05;39.95;100566.69;12192547;19;20015;-79
2023/04/09 12:26:42;;;;;;;7.72;5.50;;;;;;;17.16;39.54;100571.13;12173796;19;20476;-79
2023/04/09 12:30:44;;;;;;;;;;;;;;;17.59;40.02;100566.19;12198560;19;20026;-79
2023/04/09 12:34:46;;;;;;;8.05;5.43;;;;;;;17.93;39.35;100566.47;12193777;19;19938;-78
2023/04/09 12:38:48;;;;;;;9.00;5.32;;;;;;;17.72;38.05;100559.22;12177028;19;20010;-78
2023/04/09 12:42:50;;;;;;;10.25;6.25;;;;;;;17.55;38.94;100548.38;12196850;19;20010;-78
2023/04/09 12:46:52;;;;;;;8.30;5.13;;;;;;;17.36;39.37;100547.22;12198179;19;20918;-79
2023/04/09 12:50:54;;;;;;;8.17;5.50;;;;;;;17.43;39.85;100539.44;12174914;19;20010;-79
2023/04/09 12:54:55;;;;;;;8.38;5.80;;;;;;;19.02;38.08;100531.53;12196887;19;20002;-79
2023/04/09 12:58:57;;;;;;;8.98;5.25;;;;;;;20.30;36.00;100522.06;12200320;19;20356;-79
2023/04/09 13:02:59;;;;;;;7.23;5.27;;;;;;;20.29;35.34;100518.44;12177040;19;20014;-80
2023/04/09 13:07:01;;;;;;;7.60;5.20;;;;;;;19.23;36.03;100516.31;12198219;19;20456;-79
2023/04/09 13:11:03;;;;;;;8.03;4.83;;;;;;;17.90;36.20;100516.84;12201747;19;20014;-80
2023/04/09 13:15:05;;;;;;;7.70;4.77;;;;;;;18.55;36.63;100508.56;12178789;19;20006;-79
2023/04/09 13:19:08;;;;;;;5.82;4.45;;;;;;;20.29;35.45;100503.59;12214000;19;20281;-81
2023/04/09 13:23:10;;;;;;;7.32;4.97;;;;;;;21.99;32.15;100500.78;12198698;19;20548;-81
2023/04/09 13:27:12;;;;;;;7.10;5.33;;;;;;;23.10;30.25;100495.94;12203822;19;20014;-80
2023/04/09 13:31:14;;;;;;;6.45;4.60;;;;;;;24.49;29.65;100491.22;12242236;19;20267;-81
2023/04/09 13:35:17;;;;;;;6.03;4.72;;;;;;;24.10;27.71;100492.84;12188180;19;20728;-78
2023/04/09 13:39:19;;;;;;;7.00;4.70;;;;;;;22.71;29.37;100484.16;12198905;19;20082;-80
2023/04/09 13:43:26;;;;;;;6.40;4.78;;;;;;;22.41;30.48;100482.84;12198465;19;20015;-81
2023/04/09 13:47:29;;;;;;;7.50;4.75;;;;;;;21.56;31.47;100487.78;12176959;19;20007;-80
2023/04/09 13:51:31;;;;;;;6.78;4.95;;;;;;;20.62;32.58;100479.41;12201230;19;20030;-82
2023/04/09 13:55:32;;;;;;;6.70;4.72;;;;;;;19.64;33.07;100465.66;12197239;19;20038;-81
2023/04/09 13:59:36;;;;;;;6.97;4.22;;;;;;;19.13;33.97;100466.94;12175893;19;20465;-80
2023/04/09 14:03:39;;;;;;;6.22;4.47;;;;;;;18.88;34.45;100458.72;12194603;19;20053;-80
2023/04/09 14:07:41;;;;;;;;;;;;;;;18.59;34.17;100462.22;12200550;19;20016;-79
2023/04/09 14:11:42;;;;;;;6.90;3.72;;;;;;;18.37;34.96;100453.41;12183676;19;19922;-80
2023/04/09 14:15:45;;;;;;;7.63;4.57;;;;;;;18.21;35.30;100455.44;12203938;19;20013;-79
2023/04/09 14:19:46;;;;;;;6.03;4.22;;;;;;;18.07;34.52;100443.22;12205096;19;20007;-80
2023/04/09 14:23:48;;;;;;;5.00;3.22;;;;;;;17.75;35.13;100453.56;12181111;19;20006;-79
2023/04/09 14:27:50;;;;;;;5.60;3.67;;;;;;;17.57;35.65;100442.19;12200607;19;20010;-79
2023/04/09 14:31:53;;;;;;;5.70;3.63;;;;;;;17.51;36.19;100442.19;12206779;19;20026;-79
2023/04/09 14:35:57;;;;;;;6.68;3.92;;;;;;;17.29;36.04;100436.09;12186327;19;20017;-81
2023/04/09 14:39:59;;;;;;;5.57;3.50;;;;;;;17.35;36.77;100436.94;12202147;19;20086;-79
2023/04/09 14:44:01;;;;;;;5.07;2.92;;;;;;;17.29;36.17;100431.34;12199458;19;20013;-80
2023/04/09 14:48:03;;;;;;;4.93;3.00;;;;;;;17.37;35.89;100431.91;12178874;19;20042;-79
2023/04/09 14:52:05;;;;;;;4.03;2.40;;;;;;;17.46;35.39;100431.06;12211117;19;20006;-79
2023/04/09 14:56:07;;;;;;;5.77;3.10;;;;;;;17.37;35.06;100423.53;12244172;19;20013;-79
2023/04/09 15:00:11;;;;;;;4.83;2.70;;;;;;;17.24;34.91;100425.78;12221214;19;20007;-79
2023/04/09 15:04:14;;;;;;;4.10;2.67;;;;;;;17.24;35.61;100423.00;12231257;19;20046;-79
2023/04/09 15:08:16;;;;;;;5.15;2.70;;;;;;;17.35;36.13;100425.78;12210059;19;20099;-79
2023/04/09 15:12:18;;;;;;;4.68;2.90;;;;;;;17.33;35.73;100414.09;12220027;19;20015;-80
2023/04/09 15:16:25;;;;;;;3.67;2.60;;;;;;;17.28;35.50;100410.19;12203575;19;22057;-79
2023/04/09 15:20:27;;;;;;;3.83;2.22;;;;;;;16.85;35.62;100412.41;12184758;19;20002;-79
2023/04/09 15:24:29;;;;;;;4.05;2.50;;;;;;;16.71;36.40;100405.69;12201622;19;20693;-80
2023/04/09 15:28:32;;;;;;;5.20;3.08;;;;;;;16.54;36.27;100403.16;12200896;19;20668;-80
2023/04/09 15:32:33;;;;;;;;;;;;;;;16.46;36.75;100411.22;12182096;19;20029;-80
2023/04/09 15:36:35;;;;;;;5.40;3.03;;;;;;;16.52;36.94;100398.97;12206107;19;20006;-80
2023/04/09 15:40:41;;;;;;;5.32;2.92;;;;;;;16.46;37.75;100403.69;12219115;19;20086;-80
2023/04/09 15:45:03;;;;;;;3.83;2.40;;;;;;;16.33;37.46;100409.75;12243130;19;20047;-82
2023/04/09 15:49:06;;;;;;;4.68;2.85;;;;;;;16.22;37.15;100408.06;12257014;19;20038;-79
2023/04/09 15:53:07;;;;;;;4.28;2.70;;;;;;;16.19;37.08;100406.66;12211681;19;20533;-79
2023/04/09 15:57:09;;;;;;;3.42;2.38;;;;;;;16.37;37.33;100402.56;12183960;19;20006;-79
2023/04/09 16:01:11;;;;;;;4.77;3.23;;;;;;;16.58;36.41;100404.28;12202477;19;20516;-80
2023/04/09 16:05:14;;;;;;;3.97;2.53;;;;;;;16.64;36.23;100399.56;12206681;19;20018;-79
2023/04/09 16:09:16;;;;;;;4.97;2.93;;;;;;;16.68;36.05;100402.63;12182090;19;20086;-79
2023/04/09 16:13:17;;;;;;;3.72;2.50;;;;;;;16.75;36.09;100397.63;12208311;19;20003;-78
2023/04/09 16:17:19;;;;;;;3.08;2.28;;;;;;;16.73;35.86;100397.91;12180636;19;20344;-79
2023/04/09 16:21:21;;;;;;;3.22;2.35;;;;;;;16.60;36.33;100398.44;12203727;19;20543;-79
2023/04/09 16:25:23;;;;;;;2.95;1.90;;;;;;;16.38;37.38;100395.88;12199104;19;20057;-79
2023/04/09 16:29:25;;;;;;;3.13;2.23;;;;;;;16.09;37.99;100398.28;12174343;19;19998;-79
2023/04/09 16:33:26;;;;;;;3.53;2.33;;;;;;;15.92;38.95;100390.16;12192882;19;21278;-79
2023/04/09 16:37:30;;;;;;;3.92;2.35;;;;;;;15.66;40.10;100387.22;12198649;19;20109;-80
2023/04/09 16:41:31;;;;;;;3.60;1.83;;;;;;;15.35;40.57;100389.00;12182007;19;20010;-81
2023/04/09 16:45:37;;;;;;;4.47;2.80;;;;;;;15.15;41.20;100397.16;12200594;19;20510;-79
2023/04/09 16:49:39;;;;;;;3.20;1.92;;;;;;;15.01;41.29;100394.81;12202727;19;20011;-79
2023/04/09 16:53:41;;;;;;;3.93;2.57;;;;;;;14.91;42.47;100391.16;12179419;19;20479;-80
2023/04/09 16:57:43;;;;;;;4.13;2.70;;;;;;;14.81;43.92;100389.97;12199510;19;20013;-79
2023/04/09 17:01:45;;;;;;;4.97;2.80;;;;;;;14.79;43.56;100388.56;12199145;19;20051;-80
2023/04/09 17:05:48;;;;;;;3.37;2.30;;;;;;;14.86;43.28;100383.59;12181191;19;20648;-79
2023/04/09 17:09:50;;;;;;;3.58;2.80;;;;;;;15.00;43.72;100390.38;12199357;19;20009;-79
2023/04/09 17:13:52;;;;;;;3.60;2.40;;;;;;;15.18;43.59;100379.97;12203229;19;20019;-80
2023/04/09 17:17:54;;;;;;;5.47;3.05;;;;;;;15.11;42.86;100391.31;12180158;19;20042;-79
2023/04/09 17:21:56;;;;;;;5.63;3.45;;;;;;;14.86;42.24;100391.94;12200607;19;20006;-79
2023/04/09 17:25:58;;;;;;;3.70;2.47;;;;;;;14.78;43.56;100387.72;12199593;19;20053;-79
2023/04/09 17:30:03;;;;;;;4.60;3.28;;;;;;;14.71;44.26;100391.78;12179541;19;20030;-79
2023/04/09 17:34:07;;;;;;;5.15;3.13;;;;;;;15.04;43.90;100394.28;12205784;19;20015;-79
2023/04/09 17:38:12;;;;;;;5.13;3.00;;;;;;;15.01;43.86;100397.59;12214271;19;20006;-79
2023/04/09 17:42:14;;;;;;;4.28;2.80;;;;;;;14.74;44.06;100405.97;12192054;19;20075;-78
2023/04/09 17:46:16;;;;;;;6.22;2.63;;;;;;;14.49;44.71;100405.69;12217542;19;20015;-79
2023/04/09 17:50:18;;;;;;;3.95;2.75;;;;;;;14.58;44.63;100407.78;12192243;19;20017;-79
2023/04/09 17:54:20;;;;;;;4.47;2.70;;;;;;;14.49;44.87;100402.94;12209695;19;20050;-79
2023/04/09 17:58:23;;;;;;;4.87;2.53;;;;;;;13.99;45.70;100404.00;12208662;19;20011;-79
2023/04/09 18:02:26;;;;;;;7.80;4.38;;;;;;;13.45;46.77;100410.22;12185339;19;20010;-79
2023/04/09 18:06:28;;;;;;;;;;;;;;;12.91;47.83;100412.63;12207048;19;20007;-79
2023/04/09 18:10:30;;;;;;;3.88;2.33;;;;;;;12.43;48.88;100425.91;12209246;19;19926;-79
2023/04/09 18:14:32;;;;;;;5.38;3.00;;;;;;;12.02;50.18;100427.00;12187746;19;20621;-79
2023/04/09 18:18:34;;;;;;;4.80;3.05;;;;;;;11.68;51.26;100436.97;12232777;19;20009;-79
2023/04/09 18:22:37;;;;;;;4.75;2.88;;;;;;;11.39;51.76;100437.75;12223943;19;20017;-79
2023/04/09 18:26:38;;;;;;;5.18;3.03;;;;;;;11.11;52.66;100427.38;12191563;19;20106;-80
2023/04/09 18:30:40;;;;;;;5.47;3.10;;;;;;;10.87;53.58;100434.78;12200229;19;20006;-79
2023/04/09 18:34:43;;;;;;;4.43;2.63;;;;;;;10.66;53.58;100432.59;12203249;19;20010;-79
2023/04/09 18:38:45;;;;;;;5.55;3.53;;;;;;;10.47;54.56;100440.09;12185923;19;20530;-78